Terminal Aerodrome Forecast
Issued by NWS

Home | Current Version | Previous Version | Text Only | Print | Product List | Glossary On
Versions: 1 2 3 4 5 6 7 8 9 10 11 12 13
000
FTUS45 KRIW 032331
TAFWRL
TAF
KWRL 032331Z 0400/0424 14007KT P6SM VCTS SCT080CB BKN120
     FM040300 12006KT P6SM BKN100
     FM040600 16006KT P6SM FEW120
     FM041800 02008KT P6SM SCT120=

USA.gov is the U.S. government's official web portal to all federal, state and local government web resources and services.